createdAt,value
2018-11-20T00:00:20.820Z,4.5
2018-11-20T00:01:01.383Z,4.68
2018-11-20T00:01:41.931Z,4.73
2018-11-20T00:02:22.501Z,4.6
2018-11-20T00:03:03.061Z,4.71
2018-11-20T00:03:43.613Z,4.62
2018-11-20T00:04:24.192Z,4.62
2018-11-20T00:05:04.804Z,4.55
2018-11-20T00:05:45.333Z,4.52
2018-11-20T00:06:25.904Z,4.55
2018-11-20T00:07:06.465Z,4.49
2018-11-20T00:07:47.018Z,4.52
2018-11-20T00:08:27.575Z,4.53
2018-11-20T00:09:08.145Z,4.55
2018-11-20T00:09:48.727Z,4.52
2018-11-20T00:10:29.295Z,4.42
2018-11-20T00:11:09.907Z,4.53
2018-11-20T00:11:50.504Z,4.48
2018-11-20T00:12:31.061Z,4.49
2018-11-20T00:13:11.633Z,4.55
2018-11-20T00:13:52.217Z,4.55
2018-11-20T00:14:32.795Z,4.52
2018-11-20T00:15:13.352Z,4.52
2018-11-20T00:15:53.913Z,4.52
2018-11-20T00:16:34.481Z,4.52
2018-11-20T00:17:15.093Z,4.5
2018-11-20T00:17:55.737Z,4.52
2018-11-20T00:18:36.319Z,4.55
2018-11-20T00:19:16.929Z,4.53
2018-11-20T00:19:57.488Z,4.56
2018-11-20T00:20:38.053Z,4.5
2018-11-20T00:21:18.621Z,4.66
2018-11-20T00:21:59.180Z,4.62
2018-11-20T00:22:39.732Z,4.59
2018-11-20T00:23:20.315Z,4.53
2018-11-20T00:24:00.853Z,4.56
2018-11-20T00:24:41.415Z,4.63
2018-11-20T00:25:21.972Z,4.58
2018-11-20T00:26:02.557Z,4.53
2018-11-20T00:26:43.231Z,4.5
2018-11-20T00:27:23.788Z,4.53
2018-11-20T00:28:04.350Z,4.58
2018-11-20T00:28:44.902Z,4.52
2018-11-20T00:29:25.481Z,4.53
2018-11-20T00:30:06.032Z,4.59
2018-11-20T00:30:46.618Z,4.52
2018-11-20T00:31:27.183Z,4.48
2018-11-20T00:32:07.734Z,4.5
2018-11-20T00:32:48.286Z,4.52
2018-11-20T00:33:28.832Z,4.49
2018-11-20T00:34:09.394Z,4.55
2018-11-20T00:34:49.959Z,4.42
2018-11-20T00:35:30.542Z,4.5
2018-11-20T00:36:11.127Z,4.5
2018-11-20T00:36:51.663Z,4.48
2018-11-20T00:37:32.245Z,4.45
2018-11-20T00:38:12.837Z,4.48
2018-11-20T00:38:53.423Z,4.48
2018-11-20T00:39:34.091Z,4.52
2018-11-20T00:40:14.638Z,4.55
2018-11-20T00:40:55.201Z,4.58
2018-11-20T00:41:35.751Z,4.5
2018-11-20T00:42:16.331Z,4.55
2018-11-20T00:42:56.909Z,4.52
2018-11-20T00:43:37.487Z,4.41
2018-11-20T00:44:18.082Z,4.55
2018-11-20T00:44:58.703Z,4.49
2018-11-20T00:45:39.306Z,4.56
2018-11-20T00:46:20.017Z,4.48
2018-11-20T00:47:00.557Z,4.42
2018-11-20T00:47:41.247Z,4.45
2018-11-20T00:48:21.771Z,4.55
2018-11-20T00:49:02.331Z,4.5
2018-11-20T00:49:42.886Z,4.52
2018-11-20T00:50:23.445Z,4.5
2018-11-20T00:51:04.047Z,4.53
2018-11-20T00:51:44.601Z,4.53
2018-11-20T00:52:25.162Z,4.59
2018-11-20T00:53:05.922Z,4.5
2018-11-20T00:53:46.567Z,4.63
2018-11-20T00:54:27.209Z,4.6
2018-11-20T00:55:07.842Z,4.67
2018-11-20T00:55:48.416Z,4.68
2018-11-20T00:56:29.551Z,4.59
2018-11-20T00:57:10.212Z,4.6
2018-11-20T00:57:50.788Z,4.67
2018-11-20T00:58:31.382Z,4.66
2018-11-20T00:59:11.964Z,4.52
2018-11-20T00:59:52.601Z,4.53
2018-11-20T01:00:33.162Z,4.62
2018-11-20T01:01:13.739Z,4.7
2018-11-20T01:01:54.294Z,4.59
2018-11-20T01:02:34.871Z,4.68
2018-11-20T01:03:15.415Z,4.6
2018-11-20T01:03:55.978Z,4.63
2018-11-20T01:04:36.534Z,4.7
2018-11-20T01:05:17.167Z,4.63
2018-11-20T01:05:57.720Z,4.7
2018-11-20T01:06:38.285Z,4.62
2018-11-20T01:07:18.906Z,4.66
2018-11-20T01:07:59.512Z,4.56
2018-11-20T01:08:40.120Z,4.6
2018-11-20T01:09:20.766Z,4.5
2018-11-20T01:10:01.323Z,4.59
2018-11-20T01:10:41.956Z,4.53
2018-11-20T01:11:22.501Z,4.5
2018-11-20T01:12:03.059Z,4.5
2018-11-20T01:12:43.614Z,4.49
2018-11-20T01:13:24.174Z,4.52
2018-11-20T01:14:04.739Z,4.53
2018-11-20T01:14:46.081Z,4.56
2018-11-20T01:15:26.119Z,4.55
2018-11-20T01:16:06.681Z,4.55
2018-11-20T01:16:47.225Z,4.55
2018-11-20T01:17:27.786Z,4.55
2018-11-20T01:18:08.434Z,4.41
2018-11-20T01:18:48.995Z,4.45
2018-11-20T01:19:29.572Z,4.44
2018-11-20T01:20:10.158Z,4.48
2018-11-20T01:20:50.705Z,4.38
2018-11-20T01:21:31.297Z,4.44
2018-11-20T01:22:11.864Z,4.44
2018-11-20T01:22:52.417Z,4.4
2018-11-20T01:23:32.982Z,4.49
2018-11-20T01:24:13.539Z,4.4
2018-11-20T01:24:54.141Z,4.42
2018-11-20T01:25:34.720Z,4.34
2018-11-20T01:26:15.259Z,4.49
2018-11-20T01:26:55.900Z,4.45
2018-11-20T01:27:36.478Z,4.45
2018-11-20T01:28:17.046Z,4.45
2018-11-20T01:28:57.656Z,4.48
2018-11-20T01:29:38.219Z,4.48
2018-11-20T01:30:18.796Z,4.41
2018-11-20T01:30:59.416Z,4.48
2018-11-20T01:31:40.010Z,4.38
2018-11-20T01:32:20.550Z,4.44
2018-11-20T01:33:01.111Z,4.35
2018-11-20T01:33:41.659Z,4.37
2018-11-20T01:34:22.217Z,4.37
2018-11-20T01:35:02.789Z,4.34
2018-11-20T01:35:43.353Z,4.4
2018-11-20T01:36:23.910Z,4.38
2018-11-20T01:37:04.465Z,4.35
2018-11-20T01:37:45.019Z,4.34
2018-11-20T01:38:25.580Z,4.35
2018-11-20T01:39:06.134Z,4.3
2018-11-20T01:39:46.698Z,4.38
2018-11-20T01:40:27.251Z,4.34
2018-11-20T01:41:07.808Z,4.31
2018-11-20T01:41:48.364Z,4.31
2018-11-20T01:42:28.932Z,4.35
2018-11-20T01:43:09.502Z,4.4
2018-11-20T01:43:50.056Z,4.35
2018-11-20T01:44:30.629Z,4.31
2018-11-20T01:45:11.203Z,4.31
2018-11-20T01:45:51.752Z,4.35
2018-11-20T01:46:32.333Z,4.3
2018-11-20T01:47:12.907Z,4.24
2018-11-20T01:47:53.500Z,4.37
2018-11-20T01:48:34.033Z,4.32
2018-11-20T01:49:14.598Z,4.19
2018-11-20T01:49:55.166Z,4.34
2018-11-20T01:50:35.758Z,4.34
2018-11-20T01:51:16.368Z,4.32
2018-11-20T01:51:56.933Z,4.24
2018-11-20T01:52:37.479Z,4.32
2018-11-20T01:53:18.146Z,4.2
2018-11-20T01:53:58.749Z,4.24
2018-11-20T01:54:39.360Z,4.2
2018-11-20T01:55:19.971Z,4.23
2018-11-20T01:56:00.520Z,4.24
2018-11-20T01:56:41.070Z,4.26
2018-11-20T01:57:21.720Z,4.22
2018-11-20T01:58:02.307Z,4.26
2018-11-20T01:58:42.844Z,4.22
2018-11-20T01:59:23.399Z,4.23
2018-11-20T02:00:03.955Z,4.23
2018-11-20T02:00:44.512Z,4.24
2018-11-20T02:01:25.130Z,4.24
2018-11-20T02:02:05.750Z,4.26
2018-11-20T02:02:46.396Z,4.24
2018-11-20T02:03:26.997Z,4.23
2018-11-20T02:04:07.572Z,4.26
2018-11-20T02:04:48.122Z,4.22
2018-11-20T02:05:28.680Z,4.23
2018-11-20T02:06:09.288Z,4.28
2018-11-20T02:06:49.857Z,4.26
2018-11-20T02:07:30.418Z,4.23
2018-11-20T02:08:10.971Z,4.22
2018-11-20T02:08:51.539Z,4.16
2018-11-20T02:09:32.115Z,4.19
2018-11-20T02:10:12.675Z,4.19
2018-11-20T02:10:53.243Z,4.19
2018-11-20T02:11:33.794Z,4.19
2018-11-20T02:12:14.341Z,4.2
2018-11-20T02:12:54.899Z,4.28
2018-11-20T02:13:35.441Z,4.23
2018-11-20T02:14:16.006Z,4.1
2018-11-20T02:14:56.559Z,4.23
2018-11-20T02:15:37.145Z,4.08
2018-11-20T02:16:17.694Z,4.14
2018-11-20T02:16:58.251Z,4.22
2018-11-20T02:17:38.792Z,4.19
2018-11-20T02:18:19.426Z,4.23
2018-11-20T02:18:59.984Z,4.22
2018-11-20T02:19:40.543Z,4.13
2018-11-20T02:20:21.087Z,4.13
2018-11-20T02:21:01.651Z,4.2
2018-11-20T02:21:42.211Z,4.2
2018-11-20T02:22:22.789Z,4.2
2018-11-20T02:23:03.391Z,4.19
2018-11-20T02:23:43.958Z,4.22
2018-11-20T02:24:24.601Z,4.2
2018-11-20T02:25:05.240Z,4.2
2018-11-20T02:25:45.871Z,4.19
2018-11-20T02:26:26.452Z,4.22
2018-11-20T02:27:07.014Z,4.24
2018-11-20T02:27:47.564Z,4.24
2018-11-20T02:28:28.164Z,4.23
2018-11-20T02:29:08.708Z,4.24
2018-11-20T02:29:49.266Z,4.24
2018-11-20T02:30:29.811Z,4.2
2018-11-20T02:31:10.404Z,4.19
2018-11-20T02:31:50.993Z,4.17
2018-11-20T02:32:31.558Z,4.16
2018-11-20T02:33:12.117Z,4.16
2018-11-20T02:33:52.675Z,4.19
2018-11-20T02:34:33.225Z,4.17
2018-11-20T02:35:13.775Z,4.19
2018-11-20T02:35:54.333Z,4.16
2018-11-20T02:36:34.896Z,4.23
2018-11-20T02:37:15.486Z,4.06
2018-11-20T02:37:56.089Z,4.2
2018-11-20T02:38:36.650Z,4.06
2018-11-20T02:39:17.200Z,4.1
2018-11-20T02:39:57.781Z,4.05
2018-11-20T02:40:38.355Z,4.05
2018-11-20T02:41:18.973Z,4.2
2018-11-20T02:41:59.542Z,4.19
2018-11-20T02:42:40.089Z,4.19
2018-11-20T02:43:20.659Z,4.23
2018-11-20T02:44:01.216Z,4.2
2018-11-20T02:44:41.772Z,4.2
2018-11-20T02:45:22.330Z,4.22
2018-11-20T02:46:02.897Z,4.24
2018-11-20T02:46:43.428Z,4.22
2018-11-20T02:47:24.559Z,4.24
2018-11-20T02:48:05.131Z,4.22
2018-11-20T02:48:46.830Z,4.19
2018-11-20T02:49:27.397Z,4.19
2018-11-20T02:50:07.970Z,4.26
2018-11-20T02:50:48.522Z,4.23
2018-11-20T02:51:29.254Z,4.17
2018-11-20T02:52:09.686Z,4.05
2018-11-20T02:52:50.293Z,4.13
2018-11-20T02:53:30.876Z,4.12
2018-11-20T02:54:11.448Z,4.04
2018-11-20T02:54:52.009Z,4.1
2018-11-20T02:55:32.569Z,4.08
2018-11-20T02:56:13.132Z,4.1
2018-11-20T02:56:53.677Z,4.1
2018-11-20T02:57:34.298Z,4.04
2018-11-20T02:58:14.939Z,4.05
2018-11-20T02:58:55.466Z,4.13
2018-11-20T02:59:36.034Z,4.05
2018-11-20T03:00:16.587Z,4.06
2018-11-20T03:00:57.137Z,4.08
2018-11-20T03:01:37.698Z,4.16
2018-11-20T03:02:18.274Z,4.14
2018-11-20T03:02:58.852Z,4.14
2018-11-20T03:03:39.480Z,4.17
2018-11-20T03:04:20.072Z,4.24
2018-11-20T03:05:00.648Z,4.17
2018-11-20T03:05:41.202Z,4.22
2018-11-20T03:06:21.895Z,4.16
2018-11-20T03:07:02.558Z,4.2
2018-11-20T03:07:43.171Z,4.24
2018-11-20T03:08:23.725Z,4.17
2018-11-20T03:09:04.330Z,4.06
2018-11-20T03:09:44.917Z,4.08
2018-11-20T03:10:25.476Z,4.08
2018-11-20T03:11:06.029Z,4.04
2018-11-20T03:11:46.622Z,4.05
2018-11-20T03:12:27.191Z,4.08
2018-11-20T03:13:07.754Z,4.08
2018-11-20T03:13:48.307Z,4.04
2018-11-20T03:14:28.899Z,4.02
2018-11-20T03:15:09.589Z,4.08
2018-11-20T03:15:50.140Z,3.98
2018-11-20T03:16:30.695Z,4.06
2018-11-20T03:17:11.289Z,4.05
2018-11-20T03:17:51.866Z,4.04
2018-11-20T03:18:32.414Z,4.04
2018-11-20T03:19:12.982Z,3.98
2018-11-20T03:19:53.581Z,3.95
2018-11-20T03:20:34.172Z,4.05
2018-11-20T03:21:14.738Z,3.99
2018-11-20T03:21:55.307Z,3.98
2018-11-20T03:22:35.873Z,4.05
2018-11-20T03:23:16.433Z,4.05
2018-11-20T03:23:56.985Z,4.01
2018-11-20T03:24:37.546Z,4.04
2018-11-20T03:25:18.107Z,3.98
2018-11-20T03:25:58.676Z,4.04
2018-11-20T03:26:39.287Z,4.02
2018-11-20T03:27:19.867Z,4.02
2018-11-20T03:28:00.418Z,3.99
2018-11-20T03:28:40.982Z,4.04
2018-11-20T03:29:21.548Z,4.02
2018-11-20T03:30:02.126Z,4.02
2018-11-20T03:30:42.698Z,4.06
2018-11-20T03:31:23.249Z,3.98
2018-11-20T03:32:03.809Z,3.96
2018-11-20T03:32:44.374Z,4.01
2018-11-20T03:33:25.068Z,3.95
2018-11-20T03:34:05.627Z,3.92
2018-11-20T03:34:46.256Z,3.86
2018-11-20T03:35:26.807Z,3.87
2018-11-20T03:36:07.488Z,3.88
2018-11-20T03:36:47.944Z,3.8
2018-11-20T03:37:28.501Z,3.94
2018-11-20T03:38:09.062Z,3.95
2018-11-20T03:38:49.628Z,3.91
2018-11-20T03:39:30.185Z,3.94
2018-11-20T03:40:10.765Z,3.95
2018-11-20T03:40:51.318Z,3.99
2018-11-20T03:41:31.891Z,3.86
2018-11-20T03:42:12.456Z,3.86
2018-11-20T03:42:53.052Z,3.88
2018-11-20T03:43:33.657Z,3.91
2018-11-20T03:44:14.221Z,3.84
2018-11-20T03:44:54.792Z,3.8
2018-11-20T03:45:35.341Z,3.95
2018-11-20T03:46:15.939Z,3.92
2018-11-20T03:46:56.508Z,3.96
2018-11-20T03:47:37.101Z,3.94
2018-11-20T03:48:17.639Z,3.95
2018-11-20T03:48:58.196Z,3.95
2018-11-20T03:49:38.743Z,3.88
2018-11-20T03:50:19.308Z,3.94
2018-11-20T03:50:59.957Z,3.91
2018-11-20T03:51:40.556Z,3.95
2018-11-20T03:52:21.180Z,3.95
2018-11-20T03:53:01.848Z,3.96
2018-11-20T03:53:42.476Z,3.96
2018-11-20T03:54:23.239Z,3.96
2018-11-20T03:55:03.907Z,3.84
2018-11-20T03:55:44.649Z,3.87
2018-11-20T03:56:25.183Z,3.88
2018-11-20T03:57:05.739Z,3.91
2018-11-20T03:57:46.331Z,3.88
2018-11-20T03:58:26.894Z,3.86
2018-11-20T03:59:07.490Z,3.86
2018-11-20T03:59:48.038Z,3.96
2018-11-20T04:00:28.612Z,4.01
2018-11-20T04:01:09.208Z,3.88
2018-11-20T04:01:49.849Z,3.94
2018-11-20T04:02:30.395Z,3.94
2018-11-20T04:03:10.962Z,3.95
2018-11-20T04:03:51.519Z,3.94
2018-11-20T04:04:32.076Z,3.94
2018-11-20T04:05:12.631Z,3.94
2018-11-20T04:05:53.205Z,3.87
2018-11-20T04:06:33.860Z,3.91
2018-11-20T04:07:14.416Z,3.84
2018-11-20T04:07:54.972Z,3.88
2018-11-20T04:08:35.543Z,3.96
2018-11-20T04:09:16.090Z,3.87
2018-11-20T04:09:56.640Z,3.88
2018-11-20T04:10:37.205Z,3.95
2018-11-20T04:11:17.777Z,3.98
2018-11-20T04:11:58.344Z,3.98
2018-11-20T04:12:38.891Z,3.96
2018-11-20T04:13:19.461Z,3.94
2018-11-20T04:14:00.050Z,3.98
2018-11-20T04:14:40.629Z,3.94
2018-11-20T04:15:21.171Z,3.87
2018-11-20T04:16:01.772Z,3.86
2018-11-20T04:16:42.351Z,3.91
2018-11-20T04:17:22.925Z,3.84
2018-11-20T04:18:03.600Z,3.86
2018-11-20T04:18:44.135Z,3.92
2018-11-20T04:19:24.871Z,3.86
2018-11-20T04:20:05.430Z,3.86
2018-11-20T04:20:46.109Z,3.88
2018-11-20T04:21:26.768Z,3.86
2018-11-20T04:22:07.346Z,3.83
2018-11-20T04:22:47.988Z,3.8
2018-11-20T04:23:28.561Z,3.91
2018-11-20T04:24:09.118Z,3.84
2018-11-20T04:24:49.668Z,3.84
2018-11-20T04:25:30.212Z,3.81
2018-11-20T04:26:10.791Z,3.88
2018-11-20T04:26:51.363Z,3.84
2018-11-20T04:27:31.912Z,3.94
2018-11-20T04:28:12.494Z,3.84
2018-11-20T04:28:53.149Z,3.87
2018-11-20T04:29:33.767Z,3.91
2018-11-20T04:30:14.338Z,3.86
2018-11-20T04:30:54.971Z,3.86
2018-11-20T04:31:35.599Z,3.84
2018-11-20T04:32:16.229Z,3.86
2018-11-20T04:32:56.781Z,3.88
2018-11-20T04:33:37.344Z,3.81
2018-11-20T04:34:17.905Z,3.87
2018-11-20T04:34:58.487Z,3.91
2018-11-20T04:35:39.074Z,3.92
2018-11-20T04:36:19.645Z,3.84
2018-11-20T04:37:00.226Z,3.98
2018-11-20T04:37:40.777Z,3.91
2018-11-20T04:38:21.371Z,3.92
2018-11-20T04:39:01.934Z,3.96
2018-11-20T04:39:42.506Z,3.98
2018-11-20T04:40:23.061Z,3.96
2018-11-20T04:41:03.636Z,3.92
2018-11-20T04:41:44.176Z,3.87
2018-11-20T04:42:24.776Z,3.87
2018-11-20T04:43:05.324Z,3.86
2018-11-20T04:43:45.863Z,3.91
2018-11-20T04:44:26.412Z,3.84
2018-11-20T04:45:07.025Z,3.86
2018-11-20T04:45:47.575Z,3.81
2018-11-20T04:46:28.144Z,3.91
2018-11-20T04:47:08.699Z,3.86
2018-11-20T04:47:49.287Z,3.87
2018-11-20T04:48:29.870Z,3.86
2018-11-20T04:49:10.446Z,3.84
2018-11-20T04:49:51.040Z,3.87
2018-11-20T04:50:31.592Z,3.84
2018-11-20T04:51:12.223Z,3.91
2018-11-20T04:51:52.813Z,3.86
2018-11-20T04:52:33.432Z,3.91
2018-11-20T04:53:14.036Z,3.84
2018-11-20T04:53:54.621Z,3.87
2018-11-20T04:54:35.178Z,3.86
2018-11-20T04:55:15.731Z,3.84
2018-11-20T04:55:56.329Z,3.86
2018-11-20T04:56:36.886Z,3.88
2018-11-20T04:57:17.620Z,3.84
2018-11-20T04:57:58.269Z,3.86
2018-11-20T04:58:38.885Z,3.91
2018-11-20T04:59:19.497Z,3.92
2018-11-20T05:00:00.155Z,3.88
2018-11-20T05:00:40.697Z,3.87
2018-11-20T05:01:21.260Z,3.86
2018-11-20T05:02:01.837Z,3.8
2018-11-20T05:02:42.401Z,3.84
2018-11-20T05:03:22.999Z,3.86
2018-11-20T05:04:03.562Z,3.83
2018-11-20T05:04:44.107Z,3.88
2018-11-20T05:05:24.686Z,3.96
2018-11-20T05:06:05.253Z,3.87
2018-11-20T05:06:45.907Z,3.87
2018-11-20T05:07:26.357Z,3.92
2018-11-20T05:08:06.916Z,3.92
2018-11-20T05:08:47.479Z,3.99
2018-11-20T05:09:28.104Z,4.04
2018-11-20T05:10:08.670Z,4.04
2018-11-20T05:10:49.248Z,3.96
2018-11-20T05:11:29.809Z,4.05
2018-11-20T05:12:10.362Z,4.05
2018-11-20T05:12:50.923Z,4.1
2018-11-20T05:13:31.498Z,4.01
2018-11-20T05:14:12.058Z,3.99
2018-11-20T05:14:52.598Z,4.01
2018-11-20T05:15:33.189Z,4.04
2018-11-20T05:16:13.751Z,4.06
2018-11-20T05:16:54.398Z,4.01
2018-11-20T05:17:34.931Z,3.99
2018-11-20T05:18:15.495Z,4.01
2018-11-20T05:18:56.049Z,3.95
2018-11-20T05:19:36.627Z,3.94
2018-11-20T05:20:17.186Z,3.98
2018-11-20T05:20:57.768Z,3.91
2018-11-20T05:21:38.456Z,3.84
2018-11-20T05:22:19.085Z,3.95
2018-11-20T05:22:59.647Z,3.92
2018-11-20T05:23:40.208Z,3.87
2018-11-20T05:24:20.763Z,3.94
2018-11-20T05:25:01.315Z,3.94
2018-11-20T05:25:41.868Z,3.88
2018-11-20T05:26:22.441Z,3.92
2018-11-20T05:27:02.992Z,3.95
2018-11-20T05:27:43.539Z,3.95
2018-11-20T05:28:24.113Z,3.96
2018-11-20T05:29:04.670Z,3.83
2018-11-20T05:29:45.222Z,3.91
2018-11-20T05:30:25.773Z,3.94
2018-11-20T05:31:06.585Z,3.95
2018-11-20T05:31:47.099Z,3.88
2018-11-20T05:32:27.670Z,3.92
2018-11-20T05:33:08.312Z,3.86
2018-11-20T05:33:48.874Z,3.94
2018-11-20T05:34:29.434Z,3.88
2018-11-20T05:35:10.010Z,3.98
2018-11-20T05:35:50.572Z,3.88
2018-11-20T05:36:31.132Z,3.96
2018-11-20T05:37:11.723Z,3.88
2018-11-20T05:37:52.299Z,3.95
2018-11-20T05:38:32.992Z,3.92
2018-11-20T05:39:13.576Z,3.88
2018-11-20T05:39:54.200Z,3.88
2018-11-20T05:40:34.845Z,3.87
2018-11-20T05:41:15.366Z,3.83
2018-11-20T05:41:55.933Z,3.88
2018-11-20T05:42:36.496Z,3.95
2018-11-20T05:43:17.060Z,4.04
2018-11-20T05:43:57.606Z,3.96
2018-11-20T05:44:38.167Z,4.06
2018-11-20T05:45:18.722Z,3.98
2018-11-20T05:45:59.278Z,4.08
2018-11-20T05:46:39.917Z,3.99
2018-11-20T05:47:20.453Z,4.05
2018-11-20T05:48:01.093Z,3.98
2018-11-20T05:48:41.632Z,4.1
2018-11-20T05:49:22.225Z,4.04
2018-11-20T05:50:02.779Z,4.08
2018-11-20T05:50:43.350Z,4.08
2018-11-20T05:51:23.916Z,3.99
2018-11-20T05:52:04.470Z,4.02
2018-11-20T05:52:45.071Z,3.95
2018-11-20T05:53:25.642Z,3.99
2018-11-20T05:54:06.182Z,4.01
2018-11-20T05:54:46.759Z,4.04
2018-11-20T05:55:27.331Z,4.06
2018-11-20T05:56:07.892Z,4.05
2018-11-20T05:56:48.439Z,4.04
2018-11-20T05:57:28.985Z,4.06
2018-11-20T05:58:09.624Z,3.98
2018-11-20T05:58:50.121Z,4.02
2018-11-20T05:59:30.681Z,3.96
2018-11-20T06:00:11.264Z,4.08
2018-11-20T06:00:51.832Z,4.1
2018-11-20T06:01:32.395Z,4.12
2018-11-20T06:02:12.951Z,4.1
2018-11-20T06:02:53.516Z,4.05
2018-11-20T06:03:34.075Z,4.12
2018-11-20T06:04:14.627Z,4.1
2018-11-20T06:04:55.199Z,4.1
2018-11-20T06:05:35.949Z,4.16
2018-11-20T06:06:16.518Z,4.1
2018-11-20T06:06:57.118Z,4.13
2018-11-20T06:07:37.773Z,4.1
2018-11-20T06:08:18.339Z,4.06
2018-11-20T06:08:58.904Z,4.01
2018-11-20T06:09:39.483Z,4.04
2018-11-20T06:10:20.097Z,3.99
2018-11-20T06:11:00.801Z,3.99
2018-11-20T06:11:41.344Z,4.04
2018-11-20T06:12:21.960Z,3.98
2018-11-20T06:13:02.579Z,4.04
2018-11-20T06:13:43.148Z,4.05
2018-11-20T06:14:23.742Z,4.02
2018-11-20T06:15:04.315Z,4.04
2018-11-20T06:15:44.868Z,4.02
2018-11-20T06:16:25.442Z,4.01
2018-11-20T06:17:06.013Z,4.02
2018-11-20T06:17:46.591Z,4.01
2018-11-20T06:18:27.138Z,4.02
2018-11-20T06:19:07.815Z,4.04
2018-11-20T06:19:48.277Z,4.08
2018-11-20T06:20:28.840Z,4.05
2018-11-20T06:21:09.417Z,4.13
2018-11-20T06:21:49.974Z,4.1
2018-11-20T06:22:30.649Z,4.16
2018-11-20T06:23:11.214Z,4.12
2018-11-20T06:23:51.784Z,4.12
2018-11-20T06:24:32.330Z,4.04
2018-11-20T06:25:12.891Z,4.08
2018-11-20T06:25:53.582Z,4.05
2018-11-20T06:26:34.137Z,4.12
2018-11-20T06:27:14.724Z,4.13
2018-11-20T06:27:55.291Z,4.16
2018-11-20T06:28:35.990Z,4.12
2018-11-20T06:29:16.532Z,4.05
2018-11-20T06:29:57.078Z,4.12
2018-11-20T06:30:37.991Z,4.12
2018-11-20T06:31:18.709Z,4.05
2018-11-20T06:31:59.258Z,4.16
2018-11-20T06:32:40.073Z,4.14
2018-11-20T06:33:21.214Z,4.1
2018-11-20T06:34:02.348Z,4.06
2018-11-20T06:34:43.706Z,4.1
2018-11-20T06:35:24.551Z,4.06
2018-11-20T06:36:05.259Z,4.02
2018-11-20T06:36:45.923Z,4.05
2018-11-20T06:37:26.501Z,4.06
2018-11-20T06:38:07.176Z,4.02
2018-11-20T06:38:47.970Z,4.06
2018-11-20T06:39:28.797Z,4.02
2018-11-20T06:40:09.522Z,4.1
2018-11-20T06:40:50.520Z,4.16
2018-11-20T06:41:31.475Z,4.1
2018-11-20T06:42:12.035Z,4.1
2018-11-20T06:42:53.148Z,4.16
2018-11-20T06:43:33.707Z,4.05
2018-11-20T06:44:14.321Z,4.04
2018-11-20T06:44:55.064Z,4.08
2018-11-20T06:45:35.667Z,4.12
2018-11-20T06:46:16.296Z,4.05
2018-11-20T06:46:56.863Z,4.1
2018-11-20T06:47:37.381Z,4.04
2018-11-20T06:48:18.076Z,4.06
2018-11-20T06:48:58.888Z,4.1
2018-11-20T06:49:39.449Z,4.05
2018-11-20T06:50:20.010Z,4.05
2018-11-20T06:51:00.557Z,4.06
2018-11-20T06:51:41.157Z,3.99
2018-11-20T06:52:21.712Z,4.02
2018-11-20T06:53:02.430Z,4.02
2018-11-20T06:53:42.976Z,4.04
2018-11-20T06:54:23.545Z,4.08
2018-11-20T06:55:04.290Z,4.01
2018-11-20T06:55:44.822Z,4.05
2018-11-20T06:56:25.380Z,4.04
2018-11-20T06:57:05.944Z,4.05
2018-11-20T06:57:46.515Z,4.02
2018-11-20T06:58:27.085Z,4.06
2018-11-20T06:59:11.216Z,4.01
2018-11-20T06:59:51.771Z,4.06
2018-11-20T07:00:32.328Z,4.05
2018-11-20T07:01:12.887Z,4.06
2018-11-20T07:01:53.465Z,4.34
2018-11-20T07:02:34.056Z,4.53
2018-11-20T07:03:14.641Z,4.63
2018-11-20T07:03:55.208Z,4.73
2018-11-20T07:04:35.769Z,4.89
2018-11-20T07:05:16.308Z,4.99
2018-11-20T07:05:56.917Z,5.08
2018-11-20T07:06:37.501Z,5.17
2018-11-20T07:07:18.168Z,5.12
2018-11-20T07:07:58.713Z,5.28
2018-11-20T07:08:39.215Z,5.35
2018-11-20T07:09:19.746Z,5.46
2018-11-20T07:10:00.309Z,5.54
2018-11-20T07:10:40.845Z,5.71
2018-11-20T07:11:21.405Z,5.76
2018-11-20T07:12:01.966Z,5.84
2018-11-20T07:12:42.534Z,5.75
2018-11-20T07:13:23.075Z,5.87
2018-11-20T07:14:03.652Z,5.76
2018-11-20T07:14:44.247Z,5.75
2018-11-20T07:15:24.961Z,5.76
2018-11-20T07:16:05.790Z,5.75
2018-11-20T07:16:46.037Z,5.83
2018-11-20T07:17:26.600Z,5.64
2018-11-20T07:18:07.163Z,5.56
2018-11-20T07:18:47.727Z,5.53
2018-11-20T07:19:28.297Z,5.44
2018-11-20T07:20:08.863Z,5.5
2018-11-20T07:20:49.408Z,5.54
2018-11-20T07:21:29.974Z,5.65
2018-11-20T07:22:10.535Z,5.66
2018-11-20T07:22:51.096Z,5.69
2018-11-20T07:23:31.648Z,5.72
2018-11-20T07:24:12.259Z,5.72
2018-11-20T07:24:52.830Z,5.72
2018-11-20T07:25:33.333Z,5.64
2018-11-20T07:26:13.953Z,5.71
2018-11-20T07:26:54.545Z,5.75
2018-11-20T07:27:35.102Z,5.86
2018-11-20T07:28:15.649Z,5.91
2018-11-20T07:28:56.224Z,5.86
2018-11-20T07:29:36.863Z,5.79
2018-11-20T07:30:17.465Z,5.75
2018-11-20T07:30:58.234Z,5.69
2018-11-20T07:31:38.543Z,5.61
2018-11-20T07:32:19.077Z,5.48
2018-11-20T07:32:59.673Z,5.46
2018-11-20T07:33:40.274Z,5.35
2018-11-20T07:34:20.843Z,5.3
2018-11-20T07:35:01.426Z,5.21
2018-11-20T07:35:41.954Z,5.15
2018-11-20T07:36:22.739Z,5.04
2018-11-20T07:37:03.299Z,4.92
2018-11-20T07:37:43.703Z,4.89
2018-11-20T07:38:24.299Z,4.89
2018-11-20T07:39:04.863Z,4.82
2018-11-20T07:39:45.417Z,4.78
2018-11-20T07:40:26.010Z,4.68
2018-11-20T07:41:06.589Z,4.71
2018-11-20T07:41:47.144Z,4.73
2018-11-20T07:42:27.694Z,4.7
2018-11-20T07:43:08.315Z,4.62
2018-11-20T07:43:49.763Z,4.62
2018-11-20T07:44:30.726Z,4.62
2018-11-20T07:45:11.184Z,4.62
2018-11-20T07:45:51.748Z,4.58
2018-11-20T07:46:32.320Z,4.62
2018-11-20T07:47:12.893Z,4.66
2018-11-20T07:47:53.464Z,4.66
2018-11-20T07:48:34.098Z,4.58
2018-11-20T07:49:16.453Z,4.58
2018-11-20T07:49:56.739Z,4.53
2018-11-20T07:50:37.823Z,4.52
2018-11-20T07:51:18.589Z,4.52
2018-11-20T07:51:59.317Z,4.55
2018-11-20T07:52:40.030Z,4.52
2018-11-20T07:53:20.637Z,4.55
2018-11-20T07:54:01.241Z,4.45
2018-11-20T07:54:41.811Z,4.58
2018-11-20T07:55:22.394Z,4.44
2018-11-20T07:56:03.119Z,4.45
2018-11-20T07:56:43.493Z,4.44
2018-11-20T07:57:24.057Z,4.41
2018-11-20T07:58:04.648Z,4.42
2018-11-20T07:58:45.211Z,4.48
2018-11-20T07:59:25.810Z,4.41
2018-11-20T08:00:06.377Z,4.4
2018-11-20T08:00:46.933Z,4.49
2018-11-20T08:01:27.491Z,4.49
2018-11-20T08:02:08.137Z,4.37
2018-11-20T08:02:48.612Z,4.48
2018-11-20T08:03:29.166Z,4.45
2018-11-20T08:04:09.719Z,4.4
2018-11-20T08:04:50.293Z,4.42
2018-11-20T08:05:30.868Z,4.48
2018-11-20T08:06:11.443Z,4.42
2018-11-20T08:06:52.002Z,4.41
2018-11-20T08:07:32.591Z,4.4
2018-11-20T08:08:13.212Z,4.35
2018-11-20T08:08:53.709Z,4.35
2018-11-20T08:09:34.280Z,4.35
2018-11-20T08:10:14.921Z,4.38
2018-11-20T08:10:55.443Z,4.24
2018-11-20T08:11:36.014Z,4.35
2018-11-20T08:12:16.591Z,4.2
2018-11-20T08:12:57.171Z,4.26
2018-11-20T08:13:37.712Z,4.26
2018-11-20T08:14:18.265Z,4.26
2018-11-20T08:14:58.818Z,4.24
2018-11-20T08:15:39.465Z,4.26
2018-11-20T08:16:19.958Z,4.26
2018-11-20T08:17:00.518Z,4.2
2018-11-20T08:17:41.086Z,4.23
2018-11-20T08:18:21.644Z,4.22
2018-11-20T08:19:02.196Z,4.2
2018-11-20T08:19:42.770Z,4.28
2018-11-20T08:20:23.397Z,4.26
2018-11-20T08:21:03.962Z,4.22
2018-11-20T08:21:44.507Z,4.19
2018-11-20T08:22:25.055Z,4.19
2018-11-20T08:23:05.620Z,4.2
2018-11-20T08:23:46.193Z,4.17
2018-11-20T08:24:26.770Z,4.19
2018-11-20T08:25:07.390Z,4.26
2018-11-20T08:25:47.994Z,4.2
2018-11-20T08:26:28.774Z,4.28
2018-11-20T08:27:09.072Z,4.23
2018-11-20T08:27:49.630Z,4.22
2018-11-20T08:28:30.190Z,4.23
2018-11-20T08:29:10.791Z,4.17
2018-11-20T08:29:51.460Z,4.2
2018-11-20T08:30:32.012Z,4.2
2018-11-20T08:31:12.638Z,4.19
2018-11-20T08:31:53.115Z,4.14
2018-11-20T08:32:33.660Z,4.08
2018-11-20T08:33:14.213Z,4.2
2018-11-20T08:33:54.793Z,4.2
2018-11-20T08:34:35.327Z,4.2
2018-11-20T08:35:15.970Z,4.16
2018-11-20T08:35:56.479Z,4.12
2018-11-20T08:36:37.050Z,4.2
2018-11-20T08:37:17.683Z,4.06
2018-11-20T08:37:58.153Z,4.1
2018-11-20T08:38:38.720Z,4.14
2018-11-20T08:39:19.281Z,4.1
2018-11-20T08:39:59.846Z,4.08
2018-11-20T08:40:40.441Z,4.04
2018-11-20T08:41:21.010Z,3.99
2018-11-20T08:42:01.580Z,4.04
2018-11-20T08:42:42.144Z,4.05
2018-11-20T08:43:22.701Z,4.08
2018-11-20T08:44:03.257Z,3.99
2018-11-20T08:44:43.847Z,4.06
2018-11-20T08:45:24.412Z,4.01
2018-11-20T08:46:04.968Z,4.02
2018-11-20T08:46:45.521Z,4.01
2018-11-20T08:47:26.070Z,3.98
2018-11-20T08:48:06.646Z,4.02
2018-11-20T08:48:47.181Z,4.01
2018-11-20T08:49:27.764Z,4.05
2018-11-20T08:50:08.385Z,4.01
2018-11-20T08:50:48.965Z,4.06
2018-11-20T08:51:29.533Z,3.98
2018-11-20T08:52:10.182Z,4.05
2018-11-20T08:52:50.748Z,4.08
2018-11-20T08:53:31.355Z,4.02
2018-11-20T08:54:11.969Z,4.01
2018-11-20T08:54:52.882Z,4.04
2018-11-20T08:55:33.560Z,4.05
2018-11-20T08:56:15.094Z,4.12
2018-11-20T08:56:55.675Z,4.14
2018-11-20T08:57:36.283Z,4.1
2018-11-20T08:58:17.645Z,4.02
2018-11-20T08:58:57.730Z,4.1
2018-11-20T08:59:38.389Z,4.14
2018-11-20T09:00:18.956Z,4.08
2018-11-20T09:00:59.525Z,4.13
2018-11-20T09:01:40.077Z,4.12
2018-11-20T09:02:20.748Z,4.08